Main page
METAR-TAF:

METAR-TAF

Airports :

Fayette Regional Air Center

La Grange, Texas, United States

latitude: 29-54-29N, longitude: 096-57-00W, elevation: 325 ft

Current weather observation

The report was made 16 minutes ago, at 13:35 UTC
Wind 9 mph from the South/Southeast
Temperature 81°F
Humidity 94%
Pressure 29.84 in. Hg
Visibility: 5 miles
Overcast at a height of 1300 ft
mist

METAR: K3T5 201335Z AUTO 16008KT 5SM BR OVC013 27/26 A2984 RMK AO2 T02700257

Time: 08:51 (13:51 UTC)


TAF: missing

Weather observations and forecasts of more than 4000 airports (METAR and TAF reports).

The available stations are represented by yellow and red dots on the map.

Hover mouse over dot to see the name of the station.

Then click to see weather observations and forecasts.

To change the map : click on the green buttons with a black cross to zoom in, on the green button with a dash to zoom out, or on the green arrows for adjacent maps.


METAR-TAF: